Terminal Aerodrome Forecast
Issued by NWS Lake Charles, LA

Home | Current Version | Previous Version | Text Only | Print | Product List | Glossary On
Versions: 1 2 3 4 5 6 7 8 9 10 11 12 13 14 15 16 17 18 19 20 21
000
FTUS44 KLCH 050500
TAFBPT
TAF
KBPT 050523Z 0506/0606 32012KT P6SM VCSH OVC007
     FM050700 34016G24KT P6SM VCSH OVC007
     FM050900 36023G30KT P6SM VCSH OVC007
      TEMPO 0509/0512 4SM SHRA
     FM051200 36024G31KT 4SM RA BR OVC007
     FM051700 02026G34KT P6SM VCSH OVC015
     FM052300 01020G27KT P6SM SKC=

USA.gov is the U.S. government's official web portal to all federal, state and local government web resources and services.